Time;durP1;ratioP1;P1;durP2;ratioP2;P2;SDS_P1;SDS_P2;PMS_P1;PMS_P2;Temp;Humidity;BMP_temperature;BMP_pressure;BME280_temperature;BME280_humidity;BME280_pressure;Samples;Min_cycle;Max_cycle;Signal;HPM_P1;HPM_P2
2022/10/23 00:01:13;;;;;;;30.23;19.70;;;;;;;8.47;84.52;99541.64;1703473;82;21092;-82
2022/10/23 00:03:40;;;;;;;23.98;18.40;;;;;;;8.50;84.89;99539.16;1753839;81;21054;-81
2022/10/23 00:06:07;;;;;;;27.73;20.12;;;;;;;8.50;85.29;99536.03;1758389;81;21010;-82
2022/10/23 00:08:33;;;;;;;24.82;18.85;;;;;;;8.40;85.72;99536.13;1750446;81;21017;-81
2022/10/23 00:11:00;;;;;;;26.20;18.55;;;;;;;8.33;86.28;99527.66;1742680;81;21108;-83
2022/10/23 00:13:26;;;;;;;28.32;20.52;;;;;;;8.38;86.58;99527.52;1741647;81;21167;-80
2022/10/23 00:15:53;;;;;;;27.45;20.12;;;;;;;8.43;86.72;99528.39;1699875;82;21061;-80
2022/10/23 00:18:20;;;;;;;26.62;19.92;;;;;;;8.37;87.00;99524.52;1744355;80;20979;-80
2022/10/23 00:20:48;;;;;;;30.20;20.27;;;;;;;8.32;87.66;99527.31;1744358;80;20978;-80
2022/10/23 00:23:16;;;;;;;26.02;20.40;;;;;;;8.32;88.18;99529.95;1744936;81;20991;-78
2022/10/23 00:25:42;;;;;;;30.55;21.05;;;;;;;8.39;91.04;99523.88;1746203;80;21168;-78
2022/10/23 00:28:09;;;;;;;28.62;20.48;;;;;;;8.26;93.12;99516.86;1739221;82;21030;-80
2022/10/23 00:30:37;;;;;;;27.48;19.15;;;;;;;8.20;94.29;99520.15;1743626;81;20995;-81
2022/10/23 00:33:04;;;;;;;29.95;20.55;;;;;;;8.21;94.87;99517.34;1742804;80;21073;-79
2022/10/23 00:35:31;;;;;;;27.75;20.95;;;;;;;8.22;95.72;99519.49;1746386;80;21031;-80
2022/10/23 00:37:57;;;;;;;26.10;18.95;;;;;;;8.15;96.32;99521.95;1743846;81;21247;-79
2022/10/23 00:40:23;;;;;;;29.55;20.40;;;;;;;8.14;96.90;99518.14;1735120;81;21121;-81
2022/10/23 00:42:50;;;;;;;26.75;19.90;;;;;;;8.21;97.02;99515.20;1740721;80;20951;-80
2022/10/23 00:45:32;;;;;;;29.63;22.10;;;;;;;8.18;97.86;99516.33;1742181;80;21006;-80
2022/10/23 00:47:59;;;;;;;25.27;19.05;;;;;;;8.12;98.29;99510.36;1744602;80;21110;-81
2022/10/23 00:50:27;;;;;;;26.20;20.08;;;;;;;8.15;98.30;99504.76;1740048;80;21133;-83
2022/10/23 00:52:54;;;;;;;31.95;21.20;;;;;;;8.18;98.26;99504.42;1743623;80;21053;-83
2022/10/23 00:55:21;;;;;;;29.67;20.32;;;;;;;8.12;98.95;99501.09;1741360;80;20995;-84
2022/10/23 00:57:49;;;;;;;30.02;21.30;;;;;;;8.13;99.42;99500.12;1740193;80;21062;-80
2022/10/23 01:00:23;;;;;;;30.02;23.55;;;;;;;8.20;99.57;99503.77;1740162;80;21056;-82
2022/10/23 01:02:50;;;;;;;28.45;22.10;;;;;;;8.16;99.23;99499.78;1734177;82;21389;-84
2022/10/23 01:05:21;;;;;;;30.40;20.75;;;;;;;8.09;99.79;99502.72;1705757;83;21030;-79
2022/10/23 01:07:55;;;;;;;26.23;20.90;;;;;;;8.13;99.89;99494.83;1742264;80;21046;-82
2022/10/23 01:10:30;;;;;;;34.45;24.52;;;;;;;8.14;100.00;99491.68;1695379;82;21040;-81
2022/10/23 01:13:07;;;;;;;28.23;20.68;;;;;;;8.06;100.00;99489.32;1736879;82;20983;-83
2022/10/23 01:15:52;;;;;;;32.10;23.47;;;;;;;8.10;100.00;99485.88;1732397;82;21228;-84
2022/10/23 01:18:31;;;;;;;26.27;19.92;;;;;;;8.11;100.00;99484.05;1733521;80;21063;-83
2022/10/23 01:21:13;;;;;;;23.98;20.08;;;;;;;8.03;100.00;99484.34;1728581;80;21024;-80
2022/10/23 01:24:11;;;;;;;28.70;20.92;;;;;;;8.06;100.00;99481.38;1722922;82;21029;-82
2022/10/23 01:27:03;;;;;;;27.82;21.37;;;;;;;8.06;100.00;99473.95;1727936;82;21066;-81
2022/10/23 01:29:35;;;;;;;23.10;18.85;;;;;;;7.98;100.00;99471.27;1699150;82;21137;-83
2022/10/23 01:32:13;;;;;;;29.37;20.80;;;;;;;8.04;100.00;99469.31;1727339;80;21048;-82
2022/10/23 01:34:54;;;;;;;32.30;21.95;;;;;;;7.99;100.00;99470.27;1694050;83;21008;-82
2022/10/23 01:37:24;;;;;;;28.40;20.45;;;;;;;7.96;100.00;99467.92;1703647;82;21021;-79
2022/10/23 01:39:53;;;;;;;26.37;20.52;;;;;;;8.02;100.00;99464.67;1729205;81;21113;-80
2022/10/23 01:42:29;;;;;;;31.87;20.72;;;;;;;7.96;100.00;99462.16;1726484;80;21130;-80
2022/10/23 01:45:03;;;;;;;23.18;18.87;;;;;;;7.89;100.00;99457.16;1729125;80;21089;-80
2022/10/23 01:47:33;;;;;;;26.93;20.97;;;;;;;7.95;100.00;99456.52;1714184;83;21010;-80
2022/10/23 01:50:03;;;;;;;27.40;19.50;;;;;;;7.94;100.00;99456.20;1727253;82;21101;-79
2022/10/23 01:52:31;;;;;;;27.58;20.57;;;;;;;7.87;100.00;99450.70;1710584;81;21105;-80
2022/10/23 01:54:59;;;;;;;25.50;19.62;;;;;;;7.94;100.00;99454.03;1710460;83;22231;-80
2022/10/23 01:57:29;;;;;;;25.85;20.60;;;;;;;8.00;100.00;99454.75;1728654;81;20939;-81
2022/10/23 02:00:03;;;;;;;28.12;20.20;;;;;;;7.94;100.00;99450.92;1732535;80;20986;-81
2022/10/23 02:03:22;;;;;;;25.37;20.82;;;;;;;7.97;100.00;99454.55;1870905;76;27538;-82
2022/10/23 02:05:48;;;;;;;27.10;20.97;;;;;;;7.99;100.00;99460.51;1816205;77;21509;-83
2022/10/23 02:08:15;;;;;;;30.00;21.87;;;;;;;7.99;100.00;99462.33;1805249;77;21588;-81
2022/10/23 02:11:10;;;;;;;25.92;20.15;;;;;;;7.91;100.00;99454.37;1819921;78;21650;-81
2022/10/23 02:13:59;;;;;;;27.20;21.35;;;;;;;7.96;100.00;99457.34;1800411;78;20938;-81
2022/10/23 02:16:51;;;;;;;28.05;20.12;;;;;;;7.95;100.00;99456.52;1792511;77;21153;-79
2022/10/23 02:19:40;;;;;;;29.65;22.77;;;;;;;7.94;100.00;99458.85;1821647;77;21009;-81
2022/10/23 02:22:25;;;;;;;30.02;22.13;;;;;;;7.92;100.00;99453.36;1804272;77;21155;-80
2022/10/23 02:25:22;;;;;;;29.63;22.15;;;;;;;7.92;100.00;99461.30;1826353;78;20986;-81
2022/10/23 02:27:55;;;;;;;32.15;23.02;;;;;;;7.96;100.00;99454.70;1772241;78;21044;-82
2022/10/23 02:30:23;;;;;;;29.20;22.52;;;;;;;7.97;100.00;99456.38;1803627;77;21068;-81
2022/10/23 02:32:54;;;;;;;27.13;23.27;;;;;;;7.96;100.00;99453.38;1822711;78;21010;-82
2022/10/23 02:35:23;;;;;;;29.35;22.52;;;;;;;7.97;100.00;99449.26;1820239;77;21124;-80
2022/10/23 02:37:55;;;;;;;38.35;23.83;;;;;;;8.05;100.00;99445.34;1814932;76;21072;-81
2022/10/23 02:40:40;;;;;;;24.60;21.52;;;;;;;8.07;100.00;99448.66;1800749;78;21005;-82
2022/10/23 02:43:16;;;;;;;;;;;;;;;8.08;100.00;99449.48;1805734;78;20977;-83
2022/10/23 02:46:06;;;;;;;30.37;23.52;;;;;;;8.18;100.00;99445.39;1815318;77;20500;-82
2022/10/23 02:48:40;;;;;;;27.98;22.22;;;;;;;8.17;100.00;99440.59;1786970;78;21122;-83
2022/10/23 02:51:21;;;;;;;28.65;22.15;;;;;;;8.12;100.00;99446.03;1823480;77;20971;-85
2022/10/23 02:54:05;;;;;;;29.55;22.27;;;;;;;8.16;100.00;99440.25;1820293;78;20966;-84
2022/10/23 02:56:38;;;;;;;29.72;22.67;;;;;;;8.16;100.00;99446.05;1807597;77;20993;-83
2022/10/23 02:59:19;;;;;;;29.18;22.15;;;;;;;8.18;100.00;99444.06;1796953;77;21074;-83
2022/10/23 03:01:55;;;;;;;25.45;20.62;;;;;;;8.16;100.00;99444.72;1816830;77;21090;-86
2022/10/23 03:04:23;;;;;;;28.57;22.05;;;;;;;8.13;100.00;99448.52;1820975;78;21045;-84
2022/10/23 03:06:50;;;;;;;25.52;20.95;;;;;;;8.12;100.00;99446.85;1811441;78;21009;-86
2022/10/23 03:09:17;;;;;;;26.30;22.25;;;;;;;8.13;100.00;99446.34;1811428;78;21001;-84
2022/10/23 03:11:43;;;;;;;34.20;27.55;;;;;;;8.09;100.00;99457.73;1823925;78;21084;-84
2022/10/23 03:14:11;;;;;;;32.75;27.95;;;;;;;8.07;100.00;99447.34;1811770;78;21234;-81
2022/10/23 03:16:38;;;;;;;30.17;24.40;;;;;;;8.05;100.00;99452.44;1810121;78;21033;-82
2022/10/23 03:19:05;;;;;;;30.27;23.62;;;;;;;8.08;100.00;99446.84;1812852;78;21084;-80
2022/10/23 03:21:32;;;;;;;27.32;22.45;;;;;;;8.11;100.00;99441.71;1807019;78;21498;-81
2022/10/23 03:23:59;;;;;;;25.23;19.90;;;;;;;8.18;100.00;99444.89;1822096;78;22060;-80
2022/10/23 03:26:27;;;;;;;24.05;20.68;;;;;;;8.21;100.00;99435.81;1823109;78;21100;-78
2022/10/23 03:28:53;;;;;;;24.63;20.52;;;;;;;8.25;100.00;99437.97;1825245;78;21041;-79
2022/10/23 03:31:20;;;;;;;25.65;19.62;;;;;;;8.32;100.00;99439.47;1818901;78;21080;-78
2022/10/23 03:33:49;;;;;;;25.65;20.08;;;;;;;8.34;100.00;99435.34;1799994;77;21075;-78
2022/10/23 03:36:15;;;;;;;26.40;20.15;;;;;;;8.40;100.00;99436.87;1806530;78;21083;-78
2022/10/23 03:38:42;;;;;;;26.48;20.62;;;;;;;8.42;100.00;99440.20;1803245;78;21390;-79
2022/10/23 03:41:10;;;;;;;23.47;19.02;;;;;;;8.45;100.00;99439.05;1821685;77;21534;-83
2022/10/23 03:43:37;;;;;;;25.10;20.77;;;;;;;8.52;100.00;99431.27;1749489;81;21052;-81
2022/10/23 03:46:08;;;;;;;24.65;20.10;;;;;;;8.54;100.00;99434.11;1761188;81;21078;-81
2022/10/23 03:48:32;;;;;;;22.55;18.27;;;;;;;8.52;100.00;99437.89;1767838;81;21077;-80
2022/10/23 03:50:59;;;;;;;21.45;18.42;;;;;;;8.54;100.00;99431.47;1754623;81;21314;-81
2022/10/23 03:53:25;;;;;;;24.90;19.55;;;;;;;8.58;100.00;99425.35;1748486;81;21106;-80
2022/10/23 03:55:52;;;;;;;22.00;18.92;;;;;;;8.57;100.00;99432.95;1762506;80;21044;-82
2022/10/23 03:58:18;;;;;;;19.55;17.42;;;;;;;8.52;100.00;99441.39;1767741;80;21061;-81
2022/10/23 04:00:45;;;;;;;19.60;17.57;;;;;;;8.50;100.00;99423.98;1772962;80;21688;-83
2022/10/23 04:03:13;;;;;;;21.35;16.10;;;;;;;8.50;100.00;99427.96;1758612;80;22012;-84
2022/10/23 04:05:41;;;;;;;19.42;15.88;;;;;;;8.50;100.00;99426.64;1743585;81;21023;-84
2022/10/23 04:08:08;;;;;;;22.77;16.73;;;;;;;8.48;100.00;99431.27;1763088;81;21030;-84
2022/10/23 04:10:35;;;;;;;17.60;15.53;;;;;;;8.46;100.00;99417.71;1759927;81;21033;-81
2022/10/23 04:13:02;;;;;;;19.90;15.72;;;;;;;8.46;100.00;99412.42;1740908;81;21014;-82
2022/10/23 04:15:32;;;;;;;17.05;15.25;;;;;;;8.48;100.00;99418.03;1761649;81;21013;-81
2022/10/23 04:18:00;;;;;;;18.57;16.20;;;;;;;8.49;100.00;99415.73;1755691;81;21039;-83
2022/10/23 04:20:27;;;;;;;17.00;15.05;;;;;;;8.48;100.00;99413.59;1765819;80;21613;-82
2022/10/23 04:22:54;;;;;;;18.52;16.25;;;;;;;8.52;100.00;99415.39;1747973;80;21089;-81
2022/10/23 04:25:20;;;;;;;20.88;17.95;;;;;;;8.53;100.00;99415.73;1759452;80;21427;-81
2022/10/23 04:27:47;;;;;;;20.00;15.90;;;;;;;8.54;100.00;99412.11;1772837;80;21790;-83
2022/10/23 04:30:14;;;;;;;18.17;16.07;;;;;;;8.55;100.00;99411.92;1740897;81;21732;-81
2022/10/23 04:32:41;;;;;;;17.42;15.28;;;;;;;8.55;100.00;99411.92;1760014;81;20975;-82
2022/10/23 04:35:08;;;;;;;18.40;16.35;;;;;;;8.56;100.00;99414.09;1761442;80;21042;-79
2022/10/23 04:37:35;;;;;;;17.37;14.53;;;;;;;8.53;100.00;99409.94;1718388;80;21322;-82
2022/10/23 04:40:01;;;;;;;16.55;14.75;;;;;;;8.53;100.00;99407.28;1766629;81;21200;-82
2022/10/23 04:42:28;;;;;;;17.87;15.28;;;;;;;8.56;100.00;99406.97;1708553;83;21097;-81
2022/10/23 04:44:56;;;;;;;17.20;15.38;;;;;;;8.57;100.00;99406.47;1752467;80;21013;-80
2022/10/23 04:47:23;;;;;;;16.67;14.47;;;;;;;8.56;100.00;99411.45;1784769;79;21064;-83
2022/10/23 04:49:55;;;;;;;18.35;14.53;;;;;;;8.56;100.00;99414.09;1766953;80;21101;-82
2022/10/23 04:52:24;;;;;;;15.05;13.53;;;;;;;8.59;100.00;99414.57;1769773;80;21825;-80
2022/10/23 04:55:01;;;;;;;15.58;13.50;;;;;;;8.59;100.00;99410.60;1766229;80;21054;-79
2022/10/23 04:57:29;;;;;;;15.32;13.72;;;;;;;8.60;100.00;99411.45;1767693;80;21015;-80
2022/10/23 04:59:58;;;;;;;15.78;14.07;;;;;;;8.59;100.00;99415.08;1768188;79;21089;-84
2022/10/23 05:02:26;;;;;;;15.55;13.83;;;;;;;8.61;100.00;99413.09;1749416;80;21076;-82
2022/10/23 05:04:53;;;;;;;15.70;13.95;;;;;;;8.62;100.00;99415.58;1806155;77;21247;-82
2022/10/23 05:07:35;;;;;;;17.00;13.72;;;;;;;8.60;100.00;99412.78;1790656;79;21006;-82
2022/10/23 05:10:05;;;;;;;16.12;13.53;;;;;;;8.59;100.00;99414.57;1814165;78;21030;-81
2022/10/23 05:12:41;;;;;;;14.38;12.90;;;;;;;8.60;100.00;99412.78;1810817;78;21501;-82
2022/10/23 05:15:09;;;;;;;14.65;13.15;;;;;;;8.59;100.00;99418.55;1810051;77;21050;-82
2022/10/23 05:17:39;;;;;;;15.55;13.40;;;;;;;8.58;100.00;99417.41;1796931;78;21029;-82
2022/10/23 05:20:11;;;;;;;14.80;12.88;;;;;;;8.59;100.00;99425.16;1811547;77;21568;-83
2022/10/23 05:22:38;;;;;;;15.72;13.50;;;;;;;8.62;100.00;99422.70;1795593;79;20978;-81
2022/10/23 05:25:08;;;;;;;14.25;12.75;;;;;;;8.60;100.00;99431.31;1786380;79;21069;-80
2022/10/23 05:27:35;;;;;;;14.30;12.45;;;;;;;8.63;100.00;99424.34;1770639;79;21013;-78
2022/10/23 05:30:05;;;;;;;13.18;11.57;;;;;;;8.61;100.00;99426.33;1813946;78;21728;-80
2022/10/23 05:32:33;;;;;;;14.85;13.32;;;;;;;8.64;100.00;99421.55;1812919;77;21030;-80
2022/10/23 05:35:00;;;;;;;13.80;12.30;;;;;;;8.68;100.00;99430.50;1792160;79;21409;-77
2022/10/23 05:37:28;;;;;;;16.02;12.10;;;;;;;8.70;100.00;99427.19;1796758;78;21808;-81
2022/10/23 05:39:57;;;;;;;13.65;12.25;;;;;;;8.71;100.00;99425.70;1807454;78;21021;-79
2022/10/23 05:42:23;;;;;;;13.43;12.03;;;;;;;8.71;100.00;99421.73;1758200;81;21062;-79
2022/10/23 05:44:51;;;;;;;14.93;12.45;;;;;;;8.72;100.00;99418.58;1742937;81;21080;-80
2022/10/23 05:47:19;;;;;;;13.38;11.80;;;;;;;8.73;100.00;99421.07;1748587;80;21050;-79
2022/10/23 05:49:54;;;;;;;13.78;11.80;;;;;;;8.74;100.00;99419.24;1756199;81;21042;-79
2022/10/23 05:52:35;;;;;;;14.07;11.97;;;;;;;8.80;100.00;99422.55;1680024;81;21322;-79
2022/10/23 05:55:12;;;;;;;14.28;12.03;;;;;;;8.81;100.00;99421.07;1799461;77;21026;-79
2022/10/23 05:57:43;;;;;;;14.95;11.97;;;;;;;8.84;100.00;99417.25;1789834;79;21593;-78
2022/10/23 06:00:12;;;;;;;13.32;11.55;;;;;;;8.87;100.00;99426.20;1813215;78;20966;-84
2022/10/23 06:02:42;;;;;;;15.43;13.48;;;;;;;8.90;100.00;99423.21;1802502;77;21009;-80
2022/10/23 06:05:21;;;;;;;14.90;13.25;;;;;;;8.90;100.00;99430.34;1824268;78;20988;-79
2022/10/23 06:07:58;;;;;;;16.05;13.60;;;;;;;8.88;100.00;99431.00;1807498;78;21133;-79
2022/10/23 06:10:26;;;;;;;14.78;12.82;;;;;;;8.87;100.00;99425.39;1772432;78;21029;-79
2022/10/23 06:12:54;;;;;;;15.68;13.45;;;;;;;8.87;100.00;99430.19;1775789;78;22228;-79
2022/10/23 06:15:21;;;;;;;16.73;12.78;;;;;;;8.90;100.00;99423.72;1800836;78;20994;-78
2022/10/23 06:17:51;;;;;;;16.50;13.53;;;;;;;8.92;100.00;99429.67;1794912;77;21098;-78
2022/10/23 06:20:17;;;;;;;14.93;12.75;;;;;;;8.92;100.00;99426.52;1812686;79;21512;-79
2022/10/23 06:22:45;;;;;;;15.78;12.82;;;;;;;8.94;100.00;99420.56;1789995;79;21058;-79
2022/10/23 06:25:14;;;;;;;15.15;13.55;;;;;;;8.98;100.00;99417.09;1802958;78;21518;-79
2022/10/23 06:27:40;;;;;;;14.38;12.82;;;;;;;9.00;100.00;99421.25;1809651;77;20983;-78
2022/10/23 06:30:08;;;;;;;16.40;13.30;;;;;;;9.02;100.00;99422.38;1810032;78;21041;-79
2022/10/23 06:32:35;;;;;;;15.20;13.22;;;;;;;9.03;100.00;99420.90;1797122;78;21597;-79
2022/10/23 06:35:05;;;;;;;14.63;13.03;;;;;;;9.08;100.00;99423.55;1806850;78;21031;-78
2022/10/23 06:37:35;;;;;;;14.80;12.93;;;;;;;9.09;100.00;99424.70;1812128;79;21007;-79
2022/10/23 06:40:12;;;;;;;15.43;13.55;;;;;;;9.10;100.00;99430.36;1813926;78;20975;-78
2022/10/23 06:42:57;;;;;;;15.55;13.78;;;;;;;9.15;100.00;99424.55;1801051;77;20995;-76
2022/10/23 06:45:34;;;;;;;15.83;13.72;;;;;;;9.20;100.00;99423.55;1807159;78;21126;-80
2022/10/23 06:48:13;;;;;;;14.98;13.35;;;;;;;9.20;100.00;99425.70;1796185;77;21053;-78
2022/10/23 06:50:47;;;;;;;17.00;14.50;;;;;;;9.20;100.00;99421.72;1791715;78;21136;-80
2022/10/23 06:53:17;;;;;;;15.15;13.50;;;;;;;9.24;100.00;99427.52;1804144;78;21116;-79
2022/10/23 06:55:45;;;;;;;15.30;13.60;;;;;;;9.28;100.00;99427.52;1815546;78;20994;-80
2022/10/23 06:58:13;;;;;;;17.98;13.70;;;;;;;9.33;100.00;99427.85;1809872;78;21198;-79
2022/10/23 07:00:41;;;;;;;14.98;13.10;;;;;;;9.35;100.00;99425.86;1793088;78;20982;-80
2022/10/23 07:03:07;;;;;;;16.35;14.65;;;;;;;9.39;100.00;99430.33;1799405;78;21049;-78
2022/10/23 07:05:34;;;;;;;16.95;14.70;;;;;;;9.44;100.00;99430.16;1801167;77;21061;-78
2022/10/23 07:08:04;;;;;;;18.30;16.25;;;;;;;9.51;100.00;99432.95;1805935;78;21025;-77
2022/10/23 07:10:33;;;;;;;16.85;14.98;;;;;;;9.52;100.00;99430.64;1793193;79;21036;-77
2022/10/23 07:13:02;;;;;;;19.55;15.30;;;;;;;9.53;100.00;99428.81;1782837;80;20978;-79
2022/10/23 07:15:31;;;;;;;17.87;14.45;;;;;;;9.58;100.00;99433.09;1772134;79;21072;-79
2022/10/23 07:17:57;;;;;;;18.45;15.68;;;;;;;9.61;100.00;99432.77;1752297;80;21562;-79
2022/10/23 07:20:27;;;;;;;19.85;15.58;;;;;;;9.65;100.00;99434.89;1755091;80;21089;-80
2022/10/23 07:22:54;;;;;;;22.95;18.30;;;;;;;9.69;100.00;99435.89;1755861;79;21091;-80
2022/10/23 07:25:26;;;;;;;18.73;16.70;;;;;;;9.75;100.00;99437.86;1764938;81;21042;-78
2022/10/23 07:27:55;;;;;;;20.48;17.67;;;;;;;9.79;100.00;99435.20;1763500;81;21010;-79
2022/10/23 07:30:23;;;;;;;20.80;17.07;;;;;;;9.78;100.00;99442.33;1764175;81;21001;-81
2022/10/23 07:32:52;;;;;;;21.82;17.55;;;;;;;9.82;100.00;99434.87;1745568;79;21014;-78
2022/10/23 07:35:35;;;;;;;21.55;17.42;;;;;;;9.86;100.00;99432.20;1754031;80;21259;-80
2022/10/23 07:38:06;;;;;;;19.20;15.55;;;;;;;9.88;100.00;99426.22;1764278;79;21053;-78
2022/10/23 07:40:36;;;;;;;19.65;17.55;;;;;;;9.95;100.00;99431.17;1814106;78;21017;-78
2022/10/23 07:43:03;;;;;;;23.02;18.48;;;;;;;9.99;100.00;99424.52;1812530;79;21624;-80
2022/10/23 07:45:29;;;;;;;19.65;16.87;;;;;;;10.00;100.00;99423.51;1795887;79;21461;-80
2022/10/23 07:47:57;;;;;;;23.80;18.87;;;;;;;10.02;100.00;99423.34;1798749;77;21426;-80
2022/10/23 07:50:25;;;;;;;24.40;18.82;;;;;;;10.04;100.00;99418.69;1808136;78;21038;-80
2022/10/23 07:52:52;;;;;;;24.23;18.73;;;;;;;10.08;100.00;99417.84;1811668;77;20983;-81
2022/10/23 07:55:19;;;;;;;23.38;18.37;;;;;;;10.13;100.00;99422.97;1802337;77;20986;-78
2022/10/23 07:57:48;;;;;;;23.12;16.93;;;;;;;10.23;100.00;99420.09;1793335;78;21081;-78
2022/10/23 08:00:16;;;;;;;24.32;18.65;;;;;;;10.31;100.00;99420.59;1786196;78;21801;-78
2022/10/23 08:02:46;;;;;;;23.02;18.23;;;;;;;10.34;100.00;99418.41;1794945;77;21034;-79
2022/10/23 08:05:14;;;;;;;20.45;16.93;;;;;;;10.37;100.00;99420.73;1815105;77;21029;-78
2022/10/23 08:07:42;;;;;;;19.85;17.50;;;;;;;10.40;100.00;99417.71;1786744;78;21591;-78
2022/10/23 08:10:10;;;;;;;21.10;17.12;;;;;;;10.43;100.00;99421.36;1802104;79;21034;-79
2022/10/23 08:12:40;;;;;;;22.65;18.20;;;;;;;10.47;100.00;99420.98;1795578;77;21403;-79
2022/10/23 08:15:09;;;;;;;24.65;18.57;;;;;;;10.49;100.00;99426.47;1812668;78;22213;-78
2022/10/23 08:17:38;;;;;;;23.22;17.45;;;;;;;10.51;100.00;99429.78;1804005;78;21025;-80
2022/10/23 08:20:08;;;;;;;20.20;16.70;;;;;;;10.56;100.00;99430.57;1812692;78;21057;-79
2022/10/23 08:22:38;;;;;;;21.80;17.02;;;;;;;10.61;100.00;99425.56;1814188;77;21001;-78
2022/10/23 08:25:05;;;;;;;20.55;17.32;;;;;;;10.64;100.00;99426.52;1785211;79;21404;-79
2022/10/23 08:27:33;;;;;;;24.55;17.60;;;;;;;10.67;100.00;99439.47;1795712;78;21053;-80
2022/10/23 08:30:00;;;;;;;21.70;17.35;;;;;;;10.71;100.00;99435.45;1799065;78;21089;-78
2022/10/23 08:32:30;;;;;;;23.30;17.82;;;;;;;10.75;100.00;99430.61;1812673;77;21056;-79
2022/10/23 08:34:58;;;;;;;23.38;17.12;;;;;;;10.80;100.00;99439.71;1803081;77;21068;-78
2022/10/23 08:37:27;;;;;;;22.85;17.55;;;;;;;10.86;100.00;99442.67;1804407;78;21192;-77
2022/10/23 08:39:54;;;;;;;21.87;16.00;;;;;;;10.90;100.00;99441.31;1807504;78;20997;-77
2022/10/23 08:42:40;;;;;;;21.95;17.75;;;;;;;10.93;100.00;99443.59;1810951;78;21017;-78
2022/10/23 08:45:27;;;;;;;23.02;16.90;;;;;;;10.97;100.00;99443.08;1810162;78;21037;-79
2022/10/23 08:48:01;;;;;;;25.43;17.82;;;;;;;11.04;100.00;99445.84;1808096;78;21068;-78
2022/10/23 08:50:52;;;;;;;23.73;17.27;;;;;;;11.07;100.00;99444.65;1811921;79;21053;-77
2022/10/23 08:53:32;;;;;;;19.50;16.25;;;;;;;11.09;100.00;99444.81;1806186;78;21089;-79
2022/10/23 08:56:06;;;;;;;22.37;16.75;;;;;;;11.14;100.00;99448.25;1814246;78;21013;-77
2022/10/23 08:58:45;;;;;;;17.27;14.45;;;;;;;11.15;100.00;99444.09;1812304;78;21018;-79
2022/10/23 09:01:39;;;;;;;18.50;14.87;;;;;;;11.17;100.00;99454.05;1797094;77;21521;-79
2022/10/23 09:04:05;;;;;;;20.00;15.93;;;;;;;11.20;100.00;99455.51;1794995;78;21168;-78
2022/10/23 09:07:00;;;;;;;21.42;15.68;;;;;;;11.24;100.00;99455.47;1811537;77;20942;-78
2022/10/23 09:10:15;;;;;;;20.32;15.23;;;;;;;11.26;100.00;99454.82;1800119;78;21057;-78
2022/10/23 09:12:43;;;;;;;22.58;16.48;;;;;;;11.32;100.00;99454.58;1793177;78;21032;-77
2022/10/23 09:15:36;;;;;;;19.82;15.83;;;;;;;11.36;100.00;99451.91;1813868;77;21045;-78
2022/10/23 09:18:12;;;;;;;20.02;16.27;;;;;;;11.38;100.00;99459.20;1794799;80;21185;-78
2022/10/23 09:20:39;;;;;;;19.60;15.05;;;;;;;11.42;100.00;99459.16;1794134;79;21005;-78
2022/10/23 09:23:15;;;;;;;19.60;15.60;;;;;;;11.45;100.00;99458.78;1794054;79;21041;-80
2022/10/23 09:25:44;;;;;;;18.05;14.87;;;;;;;11.48;100.00;99454.95;1815127;77;21080;-79
2022/10/23 09:28:20;;;;;;;18.10;14.87;;;;;;;11.51;100.00;99462.55;1819307;78;21039;-78
2022/10/23 09:30:46;;;;;;;19.30;15.28;;;;;;;11.51;100.00;99462.55;1819819;78;21101;-78
2022/10/23 09:33:18;;;;;;;21.45;15.88;;;;;;;11.55;100.00;99459.84;1805829;78;20994;-78
2022/10/23 09:35:59;;;;;;;20.27;16.70;;;;;;;11.61;100.00;99467.13;1826092;78;21072;-80
2022/10/23 09:38:38;;;;;;;18.20;14.70;;;;;;;11.65;100.00;99465.76;1823820;78;21612;-77
2022/10/23 09:41:21;;;;;;;18.55;15.03;;;;;;;11.70;100.00;99462.53;1803213;78;21580;-77
2022/10/23 09:44:12;;;;;;;18.87;13.75;;;;;;;11.71;100.00;99464.20;1816801;77;21146;-78
2022/10/23 09:46:44;;;;;;;15.35;13.75;;;;;;;11.74;100.00;99458.50;1836313;77;21025;-78
2022/10/23 09:49:21;;;;;;;16.50;13.60;;;;;;;11.75;100.00;99463.64;1796313;78;21033;-78
2022/10/23 09:52:04;;;;;;;17.15;13.60;;;;;;;11.78;100.00;99454.46;1816390;77;21021;-78
2022/10/23 09:54:38;;;;;;;18.60;13.95;;;;;;;11.80;100.00;99454.63;1818300;78;26409;-77
2022/10/23 09:57:41;;;;;;;16.55;14.28;;;;;;;11.85;100.00;99463.38;1813931;77;21165;-78
2022/10/23 10:00:23;;;;;;;17.95;14.20;;;;;;;11.87;100.00;99453.88;1832696;77;21017;-78
2022/10/23 10:03:04;;;;;;;15.85;13.53;;;;;;;11.90;100.00;99455.70;1819384;78;21099;-77
2022/10/23 10:05:36;;;;;;;16.20;13.22;;;;;;;11.93;100.00;99451.33;1822308;78;20966;-78
2022/10/23 10:08:21;;;;;;;18.23;14.43;;;;;;;11.97;100.00;99450.46;1829004;77;21001;-76
2022/10/23 10:10:51;;;;;;;15.83;12.88;;;;;;;11.98;100.00;99446.29;1826734;78;21362;-77
2022/10/23 10:13:42;;;;;;;17.48;13.43;;;;;;;12.02;100.00;99448.59;1800546;78;21040;-78
2022/10/23 10:20:27;;;;;;;17.35;13.55;;;;;;;12.07;100.00;99447.52;1796193;78;21033;-78
2022/10/23 10:23:17;;;;;;;14.87;12.43;;;;;;;12.05;100.00;99450.87;1794165;78;21026;-76
2022/10/23 10:26:08;;;;;;;18.05;14.20;;;;;;;12.07;100.00;99448.84;1811237;77;21274;-77
2022/10/23 10:29:01;;;;;;;15.32;13.48;;;;;;;12.06;100.00;99452.02;1814568;78;21010;-78
2022/10/23 10:32:02;;;;;;;16.37;13.93;;;;;;;12.13;100.00;99446.77;1825723;77;21103;-77
2022/10/23 10:34:55;;;;;;;15.08;11.57;;;;;;;12.13;100.00;99444.11;1818063;78;21077;-77
2022/10/23 10:38:02;;;;;;;15.25;11.45;;;;;;;12.16;100.00;99444.56;1819550;78;21028;-76
2022/10/23 10:40:33;;;;;;;14.30;11.25;;;;;;;12.21;100.00;99437.37;1807249;78;21312;-75
2022/10/23 10:43:29;;;;;;;11.75;10.55;;;;;;;12.26;100.00;99438.13;1782773;77;21494;-79
2022/10/23 10:46:18;;;;;;;12.00;10.60;;;;;;;12.30;100.00;99436.23;1832725;77;21093;-78
2022/10/23 10:48:52;;;;;;;13.83;11.10;;;;;;;12.35;100.00;99434.36;1805826;78;21660;-77
2022/10/23 10:51:49;;;;;;;13.13;11.03;;;;;;;12.27;100.00;99438.47;1812277;78;21150;-77
2022/10/23 10:54:39;;;;;;;12.68;10.93;;;;;;;12.24;100.00;99436.98;1825528;77;21506;-78
2022/10/23 10:57:35;;;;;;;11.80;10.43;;;;;;;12.29;100.00;99437.26;1814710;77;21061;-77
2022/10/23 11:00:14;;;;;;;12.20;10.70;;;;;;;12.32;100.00;99440.05;1850505;77;20973;-78
2022/10/23 11:02:55;;;;;;;12.98;10.38;;;;;;;12.39;100.00;99438.29;1851831;77;21005;-78
2022/10/23 11:05:38;;;;;;;10.88;8.68;;;;;;;12.41;100.00;99436.78;1827640;77;21557;-78
2022/10/23 11:08:23;;;;;;;10.23;8.85;;;;;;;12.45;100.00;99435.39;1813355;78;21228;-77
2022/10/23 11:10:54;;;;;;;9.60;8.60;;;;;;;12.47;100.00;99441.35;1820715;77;21041;-77
2022/10/23 11:13:36;;;;;;;10.28;9.00;;;;;;;12.51;100.00;99438.63;1814888;78;21002;-78
2022/10/23 11:16:30;;;;;;;10.00;8.80;;;;;;;12.59;100.00;99435.84;1823074;78;20998;-76
2022/10/23 11:19:07;;;;;;;8.88;7.97;;;;;;;12.65;100.00;99435.59;1813200;77;21068;-77
2022/10/23 11:22:07;;;;;;;8.60;7.70;;;;;;;12.72;100.00;99425.84;1837842;77;21113;-76
2022/10/23 11:25:11;;;;;;;9.78;8.23;;;;;;;12.74;100.00;99431.28;1825602;77;21065;-76
2022/10/23 11:28:27;;;;;;;8.73;7.83;;;;;;;12.84;100.00;99436.81;1797847;78;21072;-77
2022/10/23 11:31:23;;;;;;;9.15;7.15;;;;;;;12.96;100.00;99429.95;1811001;78;21036;-77
2022/10/23 11:34:13;;;;;;;8.00;7.17;;;;;;;13.07;100.00;99431.28;1814995;78;20990;-77
2022/10/23 11:36:53;;;;;;;8.53;7.72;;;;;;;13.05;100.00;99434.14;1832486;77;21124;-77
2022/10/23 11:39:30;;;;;;;8.30;7.50;;;;;;;13.01;100.00;99436.06;1818933;78;21052;-77
2022/10/23 11:42:06;;;;;;;7.72;6.92;;;;;;;13.00;100.00;99437.91;1812322;78;21722;-78
2022/10/23 11:44:46;;;;;;;8.20;7.12;;;;;;;13.08;100.00;99439.63;1784436;78;21068;-78
2022/10/23 11:47:35;;;;;;;7.15;6.15;;;;;;;13.20;100.00;99446.59;1817431;78;21049;-78
2022/10/23 11:50:11;;;;;;;7.55;6.85;;;;;;;13.32;100.00;99453.08;1795099;78;21555;-78
2022/10/23 11:53:03;;;;;;;6.05;5.35;;;;;;;13.44;100.00;99450.18;1815420;77;21505;-78